createdAt,value
2023-03-21T07:03:24.570Z,96308.41
2023-03-21T07:05:53.349Z,96311.59
2023-03-21T07:08:22.238Z,96309.63
2023-03-21T07:10:50.442Z,96319.78
2023-03-21T07:13:18.458Z,96317.59
2023-03-21T07:15:53.622Z,96318.94
2023-03-21T07:18:21.506Z,96318.56
2023-03-21T07:20:52.293Z,96318.31
2023-03-21T07:23:21.545Z,96318.88
2023-03-21T07:25:50.372Z,96314.66
2023-03-21T07:28:20.790Z,96314.91
2023-03-21T07:30:54.916Z,96312.25
2023-03-21T07:33:26.615Z,96315.50
2023-03-21T07:36:01.168Z,96308.16
2023-03-21T07:38:30.963Z,96310.41
2023-03-21T07:41:00.781Z,96318.06
2023-03-21T07:43:32.119Z,96313.28
2023-03-21T07:46:00.977Z,96319.72
2023-03-21T07:48:30.666Z,96314.41
2023-03-21T07:51:00.187Z,96324.25
2023-03-21T07:53:28.833Z,96320.84
2023-03-21T07:55:57.941Z,96323.88
2023-03-21T07:58:26.469Z,96322.00
2023-03-21T08:00:55.593Z,96327.78
2023-03-21T08:03:26.237Z,96329.25
2023-03-21T08:05:54.010Z,96326.09
2023-03-21T08:08:23.146Z,96326.75
2023-03-21T08:10:50.956Z,96330.59
2023-03-21T08:13:18.939Z,96330.44
2023-03-21T08:15:46.731Z,96323.59
2023-03-21T08:18:14.702Z,96318.50
2023-03-21T08:20:42.648Z,96336.69
2023-03-21T08:23:10.579Z,96329.34
2023-03-21T08:25:42.879Z,96335.25
2023-03-21T08:28:10.662Z,96328.56
2023-03-21T08:30:39.433Z,96323.00
2023-03-21T08:33:07.545Z,96324.44
2023-03-21T08:35:36.302Z,96316.56
2023-03-21T08:38:05.707Z,96323.25
2023-03-21T08:40:33.943Z,96321.13
2023-03-21T08:43:03.107Z,96319.72
2023-03-21T08:45:31.462Z,96322.72
2023-03-21T08:47:59.454Z,96331.47
2023-03-21T08:50:29.592Z,96334.19
2023-03-21T08:52:57.404Z,96329.13
2023-03-21T08:55:25.479Z,96322.50
2023-03-21T09:09:42.451Z,96311.16
2023-03-21T09:12:10.723Z,96324.28
2023-03-21T09:14:38.516Z,96319.75
2023-03-21T09:17:06.686Z,96318.56
2023-03-21T09:19:34.964Z,96315.09
2023-03-21T09:22:03.727Z,96310.22
2023-03-21T09:24:31.774Z,96306.38
2023-03-21T09:27:01.973Z,96311.69
2023-03-21T09:29:32.420Z,96308.41
2023-03-21T09:32:01.685Z,96307.28
2023-03-21T09:34:29.542Z,96311.34
2023-03-21T09:36:57.609Z,96312.06
2023-03-21T09:39:26.245Z,96312.38
2023-03-21T09:42:06.325Z,96318.41
2023-03-21T09:44:44.566Z,96315.47
2023-03-21T09:47:22.044Z,96314.28
2023-03-21T09:50:01.719Z,96312.78
2023-03-21T09:52:47.885Z,96310.97
2023-03-21T09:55:20.138Z,96315.28
2023-03-21T09:57:56.098Z,96311.94
2023-03-21T10:18:14.335Z,96276.06
2023-03-21T10:20:43.791Z,96276.03
2023-03-21T10:23:16.321Z,96264.84
2023-03-21T10:25:47.628Z,96262.44
2023-03-21T10:28:18.327Z,96271.03
2023-03-21T10:30:49.987Z,96266.19
2023-03-21T10:33:22.796Z,96256.00
2023-03-21T10:35:54.596Z,96259.03
2023-03-21T10:38:25.873Z,96260.72
2023-03-21T10:40:54.321Z,96255.09
2023-03-21T10:43:35.234Z,96253.00
2023-03-21T10:46:12.727Z,96246.25
2023-03-21T10:48:46.874Z,96249.38
2023-03-21T10:51:20.592Z,96248.56
2023-03-21T10:53:53.255Z,96242.06
2023-03-21T10:56:26.175Z,96245.56
2023-03-21T10:59:00.117Z,96234.34
2023-03-21T11:01:31.830Z,96237.03
2023-03-21T11:04:06.609Z,96239.72
2023-03-21T11:06:39.038Z,96240.53
2023-03-21T11:09:13.197Z,96238.13
2023-03-21T11:11:52.339Z,96239.50
2023-03-21T11:14:39.060Z,96243.91
2023-03-21T11:17:22.116Z,96240.91
2023-03-21T11:19:53.875Z,96239.72
2023-03-21T11:22:23.737Z,96232.84
2023-03-21T11:24:54.734Z,96231.91
2023-03-21T11:27:22.690Z,96227.63
2023-03-21T11:29:52.535Z,96223.38
2023-03-21T11:32:26.852Z,96211.09
2023-03-21T11:35:00.542Z,96214.97
2023-03-21T11:37:32.509Z,96212.78
2023-03-21T11:40:16.557Z,96205.38
2023-03-21T11:42:46.624Z,96204.78
2023-03-21T11:45:17.407Z,96203.81
2023-03-21T11:47:46.201Z,96194.53
2023-03-21T11:50:29.173Z,96192.69
2023-03-21T11:53:21.455Z,96193.69
2023-03-21T11:55:59.695Z,96188.06
2023-03-21T11:58:39.119Z,96184.88
2023-03-21T12:01:18.041Z,96178.97
2023-03-21T12:04:13.810Z,96182.00
2023-03-21T12:06:49.349Z,96169.00
2023-03-21T12:09:30.240Z,96167.44
2023-03-21T12:12:08.735Z,96158.97
2023-03-21T12:14:48.515Z,96161.31
2023-03-21T12:17:26.136Z,96159.34
2023-03-21T12:20:11.963Z,96149.34
2023-03-21T12:22:53.688Z,96153.34
2023-03-21T12:25:28.976Z,96151.19
2023-03-21T12:28:08.391Z,96141.44
2023-03-21T12:30:48.539Z,96138.41
2023-03-21T12:33:37.782Z,96134.38
2023-03-21T12:36:17.720Z,96133.78
2023-03-21T12:38:56.301Z,96119.69
2023-03-21T12:41:27.441Z,96125.06
2023-03-21T12:44:01.893Z,96123.34
2023-03-21T12:46:38.948Z,96125.81
2023-03-21T12:49:11.687Z,96124.81
2023-03-21T12:51:44.640Z,96122.19
2023-03-21T12:54:26.258Z,96115.00
2023-03-21T12:56:58.674Z,96107.81
2023-03-21T12:59:34.600Z,96113.03
2023-03-21T13:02:16.843Z,96101.88
2023-03-21T13:05:00.049Z,96104.97
2023-03-21T13:07:32.546Z,96102.50
2023-03-21T13:10:07.555Z,96088.16
2023-03-21T13:12:46.029Z,96092.81
2023-03-21T13:15:34.016Z,96092.97
2023-03-21T13:18:15.708Z,96096.78
2023-03-21T13:20:48.732Z,96081.88
2023-03-21T13:23:18.457Z,96084.78
2023-03-21T13:25:50.436Z,96084.81
2023-03-21T13:28:22.639Z,96080.03
2023-03-21T13:30:52.116Z,96075.56
2023-03-21T13:33:24.031Z,96069.19
2023-03-21T13:36:00.975Z,96075.69
2023-03-21T13:38:30.626Z,96069.56
2023-03-21T13:41:01.920Z,96064.13
2023-03-21T13:43:36.303Z,96063.84
2023-03-21T13:46:10.166Z,96055.19
2023-03-21T13:49:31.423Z,96056.94
2023-03-21T13:52:01.543Z,96052.16
2023-03-21T13:54:48.255Z,96053.59
2023-03-21T13:57:39.110Z,96051.75
2023-03-21T14:00:24.214Z,96050.41
2023-03-21T14:02:56.642Z,96047.00
2023-03-21T14:05:27.040Z,96048.06
2023-03-21T14:08:06.076Z,96046.44
2023-03-21T14:10:41.695Z,96040.72
2023-03-21T14:13:16.592Z,96053.22
2023-03-21T14:15:55.168Z,96039.78
2023-03-21T14:18:52.444Z,96040.53
2023-03-21T14:21:23.797Z,96032.59
2023-03-21T14:24:03.283Z,96033.38
2023-03-21T14:26:34.353Z,96030.09
2023-03-21T14:29:12.292Z,96027.44
2023-03-21T14:31:46.985Z,96029.53
2023-03-21T14:34:17.133Z,96032.50
2023-03-21T14:36:56.921Z,96026.03
2023-03-21T14:39:29.560Z,96021.66
2023-03-21T14:42:05.369Z,96027.31
2023-03-21T14:44:53.448Z,96020.44
2023-03-21T14:47:23.732Z,96026.16
2023-03-21T14:49:54.658Z,96020.84
2023-03-21T14:52:25.952Z,96021.00
2023-03-21T14:54:55.263Z,96015.19
2023-03-21T14:57:26.136Z,96016.50
2023-03-21T14:59:59.195Z,96019.50
2023-03-21T15:02:32.790Z,96020.03
2023-03-21T15:05:09.956Z,96012.97
2023-03-21T15:07:37.937Z,96008.09
2023-03-21T15:10:09.697Z,96013.03
2023-03-21T15:12:37.533Z,96012.38
2023-03-21T15:15:08.024Z,96006.91
2023-03-21T15:17:35.985Z,96001.13
2023-03-21T15:20:10.167Z,95992.00
2023-03-21T15:22:41.579Z,95991.53
2023-03-21T15:25:15.245Z,95993.47
2023-03-21T15:27:44.188Z,95995.97
2023-03-21T15:30:21.290Z,95993.25
2023-03-21T15:32:49.560Z,95996.81
2023-03-21T15:35:22.259Z,95997.66
2023-03-21T15:37:56.667Z,95997.19
2023-03-21T15:40:27.532Z,95987.16
2023-03-21T15:43:06.424Z,95991.84
2023-03-21T15:45:46.844Z,95987.31
2023-03-21T15:48:15.911Z,95986.28
2023-03-21T15:50:47.876Z,95986.50
2023-03-21T15:53:18.646Z,95986.50
2023-03-21T15:55:49.953Z,95989.41
2023-03-21T16:01:49.883Z,95980.44
2023-03-21T16:04:18.486Z,95979.59
2023-03-21T16:06:57.872Z,95986.13
2023-03-21T16:09:25.770Z,95983.88
2023-03-21T16:11:55.258Z,95990.63
2023-03-21T16:14:27.403Z,95980.34
2023-03-21T16:16:59.003Z,95983.84
2023-03-21T16:19:29.537Z,95989.28
2023-03-21T16:21:57.380Z,95986.06
2023-03-21T16:24:25.348Z,95990.44
2023-03-21T16:26:54.124Z,95991.88
2023-03-21T16:29:22.497Z,95990.13
2023-03-21T16:31:50.738Z,95997.41
2023-03-21T16:34:20.094Z,95995.66
2023-03-21T16:36:48.739Z,95995.94
2023-03-21T16:39:19.543Z,96001.19
2023-03-21T16:41:48.196Z,96002.34
2023-03-21T16:44:16.357Z,95999.69
2023-03-21T16:46:44.190Z,96007.41
2023-03-21T16:49:21.922Z,96003.59
2023-03-21T16:51:49.756Z,95997.97
2023-03-21T16:54:17.933Z,96006.53
2023-03-21T16:56:48.542Z,96011.59
2023-03-21T16:59:16.697Z,96010.38
2023-03-21T17:01:45.959Z,96000.41
2023-03-21T17:04:14.805Z,95995.31
2023-03-21T17:06:47.305Z,95998.97
2023-03-21T17:09:16.724Z,96006.94
2023-03-21T17:11:44.984Z,96007.06
2023-03-21T17:14:16.145Z,96001.31
2023-03-21T17:16:44.368Z,95997.22
2023-03-21T17:19:17.503Z,96002.56
2023-03-21T17:21:46.998Z,96010.38
2023-03-21T17:24:15.604Z,96007.34
2023-03-21T17:26:43.534Z,96010.03
2023-03-21T17:29:13.636Z,96017.09
2023-03-21T17:31:42.423Z,96009.50
2023-03-21T17:34:10.997Z,96017.41
2023-03-21T17:36:42.110Z,96003.69
2023-03-21T17:39:17.886Z,96010.91
2023-03-21T17:41:46.820Z,96003.34
2023-03-21T17:44:14.654Z,96007.38
2023-03-21T17:46:42.695Z,96002.72
2023-03-21T17:49:13.560Z,96003.94
2023-03-21T17:51:41.907Z,96007.53
2023-03-21T17:54:11.176Z,96009.53
2023-03-21T17:56:41.666Z,96020.56
2023-03-21T17:59:13.303Z,96017.84
2023-03-21T18:01:41.494Z,96022.94
2023-03-21T18:04:09.558Z,96023.47
2023-03-21T18:06:38.236Z,96010.09
2023-03-21T18:09:11.367Z,96014.88
2023-03-21T18:11:41.730Z,96014.13
2023-03-21T18:14:19.437Z,96016.91
2023-03-21T18:16:54.148Z,96014.53
2023-03-21T18:19:22.099Z,96022.81
2023-03-21T18:21:50.025Z,96019.53
2023-03-21T18:24:17.911Z,96025.75
2023-03-21T18:26:47.160Z,96024.22
2023-03-21T18:32:07.396Z,96025.88
2023-03-21T18:34:36.788Z,96024.47
2023-03-21T18:37:04.726Z,96022.72
2023-03-21T18:39:33.037Z,96026.72
2023-03-21T18:42:04.182Z,96034.66
2023-03-21T18:44:37.312Z,96035.66
2023-03-21T18:47:06.467Z,96032.00
2023-03-21T18:52:22.588Z,96037.47
2023-03-21T18:54:50.628Z,96036.41
2023-03-21T18:57:35.915Z,96036.25
2023-03-21T19:00:10.682Z,96042.94
2023-03-21T19:02:43.328Z,96043.41
2023-03-21T19:05:13.782Z,96045.78
2023-03-21T19:07:41.911Z,96051.69
2023-03-21T19:10:20.095Z,96046.13
2023-03-21T19:12:50.489Z,96043.94
2023-03-21T19:15:21.339Z,96052.22
2023-03-21T19:20:38.552Z,96068.41
2023-03-21T19:23:09.394Z,96060.63
2023-03-21T19:25:37.998Z,96066.03
2023-03-21T19:28:08.184Z,96063.81
2023-03-21T19:30:36.780Z,96054.59
2023-03-21T19:33:05.156Z,96064.72
2023-03-21T19:35:35.338Z,96061.53
2023-03-21T19:38:03.636Z,96063.13
2023-03-21T19:40:31.567Z,96062.50
2023-03-21T19:43:10.530Z,96072.50
2023-03-21T19:45:49.386Z,96066.91
2023-03-21T19:48:17.470Z,96059.25
2023-03-21T19:51:13.857Z,96065.97
2023-03-21T19:53:34.505Z,96059.59
2023-03-21T19:56:04.925Z,96056.25
2023-03-21T19:58:38.831Z,96063.88
2023-03-21T20:01:09.277Z,96055.94
2023-03-21T20:03:38.970Z,96055.94
2023-03-21T20:06:10.062Z,96055.13
2023-03-21T20:09:05.327Z,96051.28
2023-03-21T20:11:28.824Z,96053.66
2023-03-21T20:13:56.701Z,96057.31
2023-03-21T20:16:34.234Z,96057.59
2023-03-21T20:19:03.454Z,96054.25
2023-03-21T20:21:41.088Z,96061.38
2023-03-21T20:24:14.045Z,96066.44
2023-03-21T20:26:43.513Z,96066.59
2023-03-21T20:30:06.984Z,96066.59
2023-03-21T20:32:06.818Z,96070.50
2023-03-21T20:34:38.557Z,96067.19
2023-03-21T20:37:08.595Z,96062.28
2023-03-21T20:39:36.697Z,96063.38
2023-03-21T20:42:07.192Z,96063.25
2023-03-21T20:44:52.354Z,96059.94
2023-03-21T20:47:25.080Z,96063.47
2023-03-21T20:49:55.242Z,96068.41
2023-03-21T20:55:14.229Z,96058.09
2023-03-21T20:57:42.411Z,96062.56
2023-03-21T21:00:13.727Z,96060.16
2023-03-21T21:02:44.885Z,96060.34
2023-03-21T21:05:34.460Z,96059.38
2023-03-21T21:08:03.846Z,96059.06
2023-03-21T21:10:33.831Z,96058.78
2023-03-21T21:13:02.305Z,96066.69
2023-03-21T21:15:30.277Z,96062.09
2023-03-21T21:18:08.109Z,96060.50
2023-03-21T21:20:39.685Z,96057.16
2023-03-21T21:23:09.512Z,96062.44
2023-03-21T21:25:37.590Z,96064.31
2023-03-21T21:28:09.176Z,96061.59
2023-03-21T21:30:39.339Z,96058.25
2023-03-21T21:33:09.489Z,96055.22
2023-03-21T21:35:37.613Z,96050.25
2023-03-21T21:38:13.212Z,96050.91
2023-03-21T21:40:44.316Z,96052.47
2023-03-21T21:43:12.964Z,96048.03
2023-03-21T21:45:44.721Z,96042.94
2023-03-21T21:48:14.624Z,96047.06
2023-03-21T21:50:47.427Z,96046.56
2023-03-21T21:53:19.094Z,96047.50
2023-03-21T21:55:48.635Z,96047.00
2023-03-21T21:58:18.542Z,96046.53
2023-03-21T22:00:48.349Z,96046.69
2023-03-21T22:03:21.962Z,96049.06
2023-03-21T22:05:50.499Z,96050.16
2023-03-21T22:08:20.752Z,96042.41
2023-03-21T22:10:48.986Z,96051.56
2023-03-21T22:13:19.070Z,96056.50
2023-03-21T22:15:47.148Z,96048.25
2023-03-21T22:18:15.378Z,96051.91
2023-03-21T22:20:45.664Z,96051.09
2023-03-21T22:23:16.148Z,96055.88
2023-03-21T22:25:51.478Z,96052.38
2023-03-21T22:28:21.972Z,96052.38
2023-03-21T22:30:50.346Z,96061.75
2023-03-21T22:33:19.903Z,96061.28
2023-03-21T22:35:51.322Z,96063.16
2023-03-21T22:38:25.122Z,96056.38
2023-03-21T22:40:56.701Z,96061.63
2023-03-21T22:43:24.948Z,96062.59
2023-03-21T22:45:53.529Z,96069.44
2023-03-21T22:48:22.395Z,96063.75
2023-03-21T22:50:51.781Z,96066.81
2023-03-21T22:53:19.901Z,96068.94
2023-03-21T22:55:47.761Z,96068.28
2023-03-21T22:58:15.788Z,96054.00
2023-03-21T23:00:45.360Z,96050.38
2023-03-21T23:03:14.890Z,96049.25
2023-03-21T23:05:43.377Z,96047.66
2023-03-21T23:08:13.334Z,96041.16
2023-03-21T23:10:43.588Z,96037.34
2023-03-21T23:13:11.742Z,96046.41
2023-03-21T23:15:39.772Z,96034.00
2023-03-21T23:18:07.763Z,96037.03
2023-03-21T23:20:35.729Z,96024.31
2023-03-21T23:23:03.550Z,96029.91
2023-03-21T23:25:33.607Z,96026.38
2023-03-21T23:28:02.656Z,96018.16
2023-03-21T23:30:33.574Z,96028.63
2023-03-21T23:33:01.535Z,96016.88
2023-03-21T23:35:29.395Z,96014.63
2023-03-21T23:37:58.628Z,96016.69
2023-03-21T23:40:29.396Z,96011.44
2023-03-21T23:42:59.673Z,96006.34
2023-03-21T23:45:27.636Z,96002.06
2023-03-21T23:47:55.633Z,96003.16
2023-03-21T23:50:27.014Z,96003.63
2023-03-21T23:52:57.226Z,96011.91
2023-03-21T23:55:25.259Z,96017.63
2023-03-21T23:57:59.403Z,96017.63
